Time;durP1;ratioP1;P1;durP2;ratioP2;P2;SDS_P1;SDS_P2;PMS_P1;PMS_P2;Temp;Humidity;BMP_temperature;BMP_pressure;BME280_temperature;BME280_humidity;BME280_pressure;Samples;Min_cycle;Max_cycle;Signal;HPM_P1;HPM_P2
2022/11/19 00:02:49;;;;;;;115.60;40.17;;;;;;;-1.50;98.75;100374.42;5099509;56;1143045;-79
2022/11/19 00:07:55;;;;;;;111.13;36.27;;;;;;;-1.47;98.70;100370.44;4966257;57;1143128;-79
2022/11/19 00:13:00;;;;;;;110.27;37.63;;;;;;;-1.53;97.71;100363.31;4855721;57;1143204;-79
2022/11/19 00:18:06;;;;;;;100.77;33.23;;;;;;;-1.74;96.99;100369.98;5131632;55;1143046;-79
2022/11/19 00:23:12;;;;;;;150.03;45.87;;;;;;;-1.80;97.92;100373.59;4968515;57;1143142;-79
2022/11/19 00:28:18;;;;;;;132.90;44.63;;;;;;;-1.74;98.40;100379.06;5131783;55;1142986;-79
2022/11/19 00:33:23;;;;;;;108.27;38.63;;;;;;;-1.77;98.08;100379.98;4921977;56;1143097;-78
2022/11/19 00:38:30;;;;;;;116.93;37.78;;;;;;;-1.76;97.93;100371.77;4850984;58;1143333;-79
2022/11/19 00:43:46;;;;;;;146.83;50.17;;;;;;;-1.79;97.92;100364.92;4946567;58;1142970;-79
2022/11/19 00:48:56;;;;;;;90.32;29.24;;;;;;;-2.08;96.16;100370.55;4975755;57;1142887;-79
2022/11/19 00:54:02;;;;;;;82.80;29.57;;;;;;;-2.25;96.64;100377.49;5039702;57;1140908;-78
2022/11/19 00:59:07;;;;;;;115.42;39.35;;;;;;;-2.25;97.67;100385.27;5228690;55;1140733;-79
2022/11/19 01:04:13;;;;;;;113.17;39.67;;;;;;;-2.29;97.64;100384.49;5228994;55;1142969;-79
2022/11/19 01:09:19;;;;;;;145.90;47.40;;;;;;;-2.29;97.05;100377.20;5233120;55;1142978;-79
2022/11/19 01:14:24;;;;;;;120.00;41.53;;;;;;;-2.56;96.10;100373.58;5201471;55;1143082;-79
2022/11/19 01:19:30;;;;;;;119.27;40.53;;;;;;;-2.65;97.32;100380.31;5201717;55;1142797;-79
2022/11/19 01:24:36;;;;;;;137.07;43.63;;;;;;;-2.52;98.38;100382.53;5168027;55;1143018;-79
2022/11/19 01:29:42;;;;;;;121.73;40.70;;;;;;;-2.51;97.65;100379.50;5201457;55;1143009;-78
2022/11/19 01:34:50;;;;;;;132.97;43.77;;;;;;;-2.49;98.10;100383.75;5190923;54;1143218;-78
2022/11/19 01:39:55;;;;;;;118.03;41.37;;;;;;;-2.49;98.08;100374.69;5201667;55;1142827;-79
2022/11/19 01:45:05;;;;;;;131.73;43.70;;;;;;;-2.64;96.52;100378.98;5201442;55;1142937;-79
2022/11/19 01:50:11;;;;;;;131.00;40.80;;;;;;;-2.73;96.84;100390.84;5201516;55;1142916;-78
2022/11/19 01:55:20;;;;;;;107.20;37.60;;;;;;;-2.78;96.78;100387.55;5201407;55;1142841;-79
2022/11/19 02:00:26;;;;;;;135.57;42.33;;;;;;;-2.85;97.35;100390.72;5201440;55;1142864;-79
2022/11/19 02:05:33;;;;;;;122.23;38.93;;;;;;;-2.78;97.76;100399.19;5179183;55;1142900;-79
2022/11/19 02:11:10;;;;;;;104.65;39.15;;;;;;;-2.68;97.45;100398.06;5164479;55;1142910;-80
2022/11/19 02:16:29;;;;;;;124.03;48.63;;;;;;;-2.68;97.45;100398.06;5117642;55;1143088;-78
2022/11/19 02:22:03;;;;;;;119.73;43.57;;;;;;;-2.77;96.95;100400.89;5143095;55;1143072;-78
2022/11/19 02:27:27;;;;;;;123.10;37.67;;;;;;;-2.86;96.18;100401.95;5144838;55;1143138;-79
2022/11/19 02:32:46;;;;;;;102.20;32.37;;;;;;;-3.02;95.98;100408.38;5144957;55;1143018;-79
2022/11/19 02:38:02;;;;;;;86.77;30.33;;;;;;;-3.30;95.32;100415.94;5143299;55;1143170;-79
2022/11/19 02:43:12;;;;;;;93.17;31.40;;;;;;;-3.29;96.79;100417.65;5145552;55;1140889;-79
2022/11/19 02:48:25;;;;;;;92.83;29.37;;;;;;;-3.20;97.34;100412.69;5194466;55;1140907;-78
2022/11/19 02:53:32;;;;;;;101.13;28.53;;;;;;;-3.13;97.22;100412.97;5201201;55;1141076;-78
2022/11/19 03:04:31;;;;;;;112.10;35.93;;;;;;;-3.53;95.71;100407.87;5201567;54;1140944;-79
2022/11/19 03:09:45;;;;;;;121.10;39.80;;;;;;;-3.51;96.86;100395.73;5200313;55;1143245;-78
2022/11/19 03:20:41;;;;;;;136.77;41.67;;;;;;;-3.35;97.12;100400.97;5203744;55;1142937;-79
2022/11/19 03:25:51;;;;;;;66.50;23.40;;;;;;;-3.51;95.71;100411.71;5201087;55;1143192;-79
2022/11/19 03:30:59;;;;;;;83.27;28.10;;;;;;;-3.74;95.82;100407.02;5201234;55;1141192;-79
2022/11/19 03:36:14;;;;;;;87.00;28.77;;;;;;;-3.80;96.79;100407.98;5201297;55;1140900;-79
2022/11/19 03:41:22;;;;;;;68.03;23.43;;;;;;;-3.73;97.33;100403.12;5201161;55;1140722;-79
2022/11/19 03:46:30;;;;;;;77.93;26.37;;;;;;;-3.58;98.22;100401.49;5201759;55;1140827;-78
2022/11/19 03:51:49;;;;;;;56.37;22.60;;;;;;;-3.50;97.76;100417.27;5201610;55;1140970;-78
2022/11/19 03:56:57;;;;;;;87.10;29.37;;;;;;;-3.53;97.33;100418.65;5144768;55;1140902;-79
2022/11/19 04:02:07;;;;;;;69.67;25.50;;;;;;;-3.61;96.63;100426.11;5105311;54;1141006;-79
2022/11/19 04:07:17;;;;;;;67.33;22.70;;;;;;;-3.64;96.86;100431.78;5132277;55;1140993;-79
2022/11/19 04:12:25;;;;;;;78.03;26.93;;;;;;;-3.61;97.34;100433.86;5119197;55;1141082;-78
2022/11/19 04:17:31;;;;;;;86.35;28.62;;;;;;;-3.52;97.55;100436.71;5174089;54;1140826;-79
2022/11/19 04:22:37;;;;;;;73.27;30.63;;;;;;;-3.43;97.83;100427.45;5172972;55;1140959;-78
2022/11/19 04:27:45;;;;;;;52.73;22.83;;;;;;;-3.44;97.15;100424.45;5085996;56;1141474;-79
2022/11/19 04:32:52;;;;;;;50.33;19.60;;;;;;;-3.65;96.67;100414.56;4982446;56;1141162;-78
2022/11/19 04:37:58;;;;;;;71.17;27.87;;;;;;;-3.82;97.01;100410.22;5109531;54;1140952;-80
2022/11/19 04:43:04;;;;;;;60.95;27.15;;;;;;;-3.76;98.55;100411.37;5132323;55;1141056;-79
2022/11/19 04:48:09;;;;;;;53.90;20.67;;;;;;;-3.64;99.17;100404.64;5132405;55;1140807;-79
2022/11/19 04:53:15;;;;;;;43.30;18.48;;;;;;;-3.59;98.80;100402.38;5075854;55;1141011;-79
2022/11/19 04:58:20;;;;;;;38.67;15.87;;;;;;;-3.68;98.33;100405.17;5085830;55;1140916;-79
2022/11/19 05:03:26;;;;;;;43.63;16.80;;;;;;;-3.83;98.17;100390.44;5183791;54;1141027;-78
2022/11/19 05:08:32;;;;;;;39.60;16.67;;;;;;;-4.05;98.13;100376.66;5140245;55;1140808;-78
2022/11/19 05:13:38;;;;;;;47.80;17.87;;;;;;;-4.12;98.85;100375.06;5072070;55;1140993;-78
2022/11/19 05:18:44;;;;;;;29.27;14.20;;;;;;;-4.12;99.15;100374.22;5138301;55;1141068;-78
2022/11/19 05:23:49;;;;;;;29.53;13.50;;;;;;;-4.15;99.45;100377.73;5209483;54;1141167;-77
2022/11/19 05:28:55;;;;;;;47.05;18.25;;;;;;;-4.05;100.00;100374.52;5140921;55;1140886;-78
2022/11/19 05:34:01;;;;;;;32.00;14.43;;;;;;;-3.96;100.00;100379.04;5140333;54;1143209;-78
2022/11/19 05:39:07;;;;;;;24.77;11.93;;;;;;;-4.06;99.62;100380.56;5140022;55;1143001;-77
2022/11/19 05:44:13;;;;;;;37.13;16.07;;;;;;;-4.14;99.83;100378.15;5225076;55;1141055;-77
2022/11/19 05:49:18;;;;;;;32.13;12.65;;;;;;;-4.22;99.78;100377.44;5171732;55;1140703;-66
2022/11/19 05:54:24;;;;;;;31.23;13.30;;;;;;;-4.36;100.00;100388.03;5127366;56;1140914;-65
2022/11/19 05:59:30;;;;;;;40.63;15.00;;;;;;;-4.48;100.00;100383.54;5118467;56;1143103;-70
2022/11/19 06:04:35;;;;;;;47.17;17.03;;;;;;;-4.51;100.00;100384.88;5139197;55;1142992;-65
2022/11/19 06:09:41;;;;;;;37.47;15.33;;;;;;;-4.45;100.00;100388.22;5140998;56;1142784;-66
2022/11/19 06:14:46;;;;;;;36.03;14.50;;;;;;;-4.38;100.00;100390.22;5134783;56;1142831;-69
2022/11/19 06:19:52;;;;;;;34.37;15.50;;;;;;;-4.29;100.00;100388.34;5121379;56;1142889;-69
2022/11/19 06:24:57;;;;;;;42.20;17.63;;;;;;;-4.21;100.00;100388.17;5074426;56;1142922;-65
2022/11/19 06:30:04;;;;;;;41.30;16.57;;;;;;;-4.17;100.00;100391.55;5056190;56;1143055;-70
2022/11/19 06:35:10;;;;;;;30.37;13.53;;;;;;;-4.17;100.00;100399.30;5113561;55;1143001;-70
2022/11/19 06:40:15;;;;;;;36.03;14.28;;;;;;;-4.15;100.00;100386.77;5141060;55;1142909;-68
2022/11/19 06:45:21;;;;;;;22.30;11.50;;;;;;;-4.11;100.00;100387.54;5136850;55;1143021;-68
2022/11/19 06:50:27;;;;;;;23.53;9.97;;;;;;;-4.16;100.00;100389.38;5096792;55;1142843;-66
2022/11/19 06:55:33;;;;;;;20.93;9.33;;;;;;;-4.24;100.00;100388.23;5045923;56;1141016;-68
2022/11/19 07:00:38;;;;;;;24.13;9.97;;;;;;;-4.26;100.00;100394.70;5091131;55;1141049;-69
2022/11/19 07:05:44;;;;;;;14.00;6.33;;;;;;;-4.24;100.00;100394.68;5112998;55;1140812;-67
2022/11/19 07:10:50;;;;;;;21.43;10.07;;;;;;;-4.25;100.00;100387.81;5131260;55;1140651;-68
2022/11/19 07:15:56;;;;;;;21.13;9.97;;;;;;;-4.23;100.00;100387.78;5155008;55;1142911;-69
2022/11/19 07:21:01;;;;;;;20.90;9.93;;;;;;;-4.20;100.00;100399.35;5185210;54;1140701;-68
2022/11/19 07:26:07;;;;;;;19.23;9.40;;;;;;;-4.15;100.00;100399.69;5233248;54;1140941;-69
2022/11/19 07:31:13;;;;;;;21.30;10.20;;;;;;;-4.12;100.00;100391.85;5215406;54;1140802;-66
2022/11/19 07:36:19;;;;;;;22.53;11.20;;;;;;;-4.08;100.00;100381.88;5236584;54;1142988;-66
2022/11/19 07:46:48;;;;;;;22.17;9.77;;;;;;;-4.04;100.00;100380.95;5144491;56;1140977;-67
2022/11/19 07:51:55;;;;;;;27.77;11.53;;;;;;;-4.04;100.00;100372.34;5153252;54;1140999;-66
2022/11/19 07:57:01;;;;;;;56.30;29.30;;;;;;;-3.98;100.00;100366.63;5222287;55;1143098;-67
2022/11/19 08:02:08;;;;;;;25.43;13.98;;;;;;;-3.87;100.00;100368.97;5211686;54;1142990;-65
2022/11/19 08:07:14;;;;;;;20.10;9.43;;;;;;;-3.74;100.00;100360.07;5164202;55;1143033;-66
2022/11/19 08:12:20;;;;;;;41.13;17.97;;;;;;;-3.50;100.00;100367.70;5161548;56;1140865;-68
2022/11/19 08:22:48;;;;;;;;;;;;;;;-3.08;100.00;100374.07;5144765;55;1143060;-66
2022/11/19 08:27:53;;;;;;;29.43;13.67;;;;;;;-3.00;100.00;100362.63;5158231;55;976470;-67
2022/11/19 08:32:59;;;;;;;32.60;12.50;;;;;;;-2.99;100.00;100367.37;5141479;55;1140869;-67
2022/11/19 08:38:05;;;;;;;36.00;13.67;;;;;;;-2.94;100.00;100369.41;5162577;56;1143073;-65
2022/11/19 08:43:10;;;;;;;20.47;9.43;;;;;;;-2.84;100.00;100364.39;5173034;55;1143090;-67
2022/11/19 08:48:17;;;;;;;29.72;11.25;;;;;;;-2.73;100.00;100359.78;5124817;55;1141035;-70
2022/11/19 08:53:22;;;;;;;25.60;10.40;;;;;;;-2.60;100.00;100361.19;5105318;56;1142992;-68
2022/11/19 08:58:28;;;;;;;24.63;12.27;;;;;;;-2.43;100.00;100365.04;5086550;56;1143120;-69
2022/11/19 09:03:34;;;;;;;40.40;16.43;;;;;;;-2.38;100.00;100371.80;5088934;56;1142964;-66
2022/11/19 09:08:41;;;;;;;44.35;16.55;;;;;;;-2.36;100.00;100363.55;5191135;56;1143064;-69
2022/11/19 09:13:46;;;;;;;23.10;9.60;;;;;;;-2.27;100.00;100358.55;5193814;55;1143010;-68
2022/11/19 09:18:52;;;;;;;31.77;13.00;;;;;;;-2.16;100.00;100352.20;5196140;55;1140851;-69
2022/11/19 09:23:58;;;;;;;39.43;16.37;;;;;;;-2.07;100.00;100345.89;5191731;56;1143021;-66
2022/11/19 09:29:03;;;;;;;27.10;12.17;;;;;;;-2.00;100.00;100337.52;5168014;56;1143126;-69
2022/11/19 09:34:09;;;;;;;22.90;7.67;;;;;;;-1.93;100.00;100339.86;5164590;56;1142979;-66
2022/11/19 09:39:16;;;;;;;79.63;22.90;;;;;;;-1.90;100.00;100344.96;5195803;55;1141064;-70
2022/11/19 09:44:37;;;;;;;37.00;13.63;;;;;;;-1.86;100.00;100328.44;5164693;55;1143237;-65
2022/11/19 09:50:20;;;;;;;35.37;15.53;;;;;;;-1.80;100.00;100323.49;5171662;55;1257552;-70
2022/11/19 09:55:36;;;;;;;29.12;11.90;;;;;;;-1.72;100.00;100309.02;5194733;56;1143053;-66
2022/11/19 10:00:43;;;;;;;19.03;9.10;;;;;;;-1.63;100.00;100311.31;5194606;55;1142934;-67
2022/11/19 10:06:13;;;;;;;25.13;10.47;;;;;;;-1.53;100.00;100311.45;5009229;56;1140962;-68
2022/11/19 10:11:47;;;;;;;26.50;12.90;;;;;;;-1.48;100.00;100303.91;5050773;55;1142954;-71
2022/11/19 10:17:27;;;;;;;24.63;11.10;;;;;;;-1.43;100.00;100295.98;5027717;56;1142901;-67
2022/11/19 10:22:51;;;;;;;29.90;13.10;;;;;;;-1.35;100.00;100291.83;4949250;57;1142894;-67
2022/11/19 10:28:01;;;;;;;27.80;10.97;;;;;;;-1.21;100.00;100273.61;4948798;57;1143090;-68
2022/11/19 10:33:32;;;;;;;19.03;8.60;;;;;;;-1.06;100.00;100268.36;5030265;56;1143079;-67
2022/11/19 10:39:03;;;;;;;24.00;8.98;;;;;;;-1.00;99.94;100259.08;5047828;56;1141035;-66
2022/11/19 10:44:36;;;;;;;42.87;13.33;;;;;;;-0.94;98.08;100254.13;5172672;56;1138846;-69
2022/11/19 10:49:44;;;;;;;27.77;10.10;;;;;;;-0.87;98.92;100238.27;5166196;55;1141124;-66
2022/11/19 10:54:56;;;;;;;23.57;11.00;;;;;;;-0.80;98.50;100235.02;5172096;55;1141051;-67
2022/11/19 11:00:02;;;;;;;21.90;7.67;;;;;;;-0.77;98.98;100227.98;5168915;55;1140889;-69
2022/11/19 11:05:14;;;;;;;22.80;8.60;;;;;;;-0.72;96.04;100240.77;5027058;57;1139078;-69
2022/11/19 11:10:47;;;;;;;17.43;8.87;;;;;;;-0.71;96.09;100227.73;5095283;56;1139062;-72
2022/11/19 11:15:50;;;;;;;15.50;9.17;;;;;;;-0.64;96.11;100232.72;5142431;54;1138868;-67
2022/11/19 11:20:56;;;;;;;18.07;8.27;;;;;;;-0.63;94.95;100222.28;5205672;55;1138777;-68
2022/11/19 11:26:09;;;;;;;13.97;7.83;;;;;;;-0.60;94.00;100218.70;5221938;55;1138638;-67
2022/11/19 11:31:20;;;;;;;22.57;8.83;;;;;;;-0.62;91.76;100216.19;5170816;55;1138823;-71
2022/11/19 11:36:28;;;;;;;6.33;3.87;;;;;;;-0.67;89.81;100219.84;5170957;56;1138780;-68
2022/11/19 11:41:41;;;;;;;16.40;8.30;;;;;;;-0.80;85.46;100240.22;5139635;56;1136539;-67
2022/11/19 11:46:54;;;;;;;48.90;20.65;;;;;;;-0.97;90.65;100229.12;5113590;55;1138631;-68
2022/11/19 11:52:10;;;;;;;11.90;5.37;;;;;;;-1.06;92.66;100238.06;5131843;55;1140930;-68
2022/11/19 11:57:23;;;;;;;16.65;7.92;;;;;;;-1.22;95.98;100239.48;5184946;55;1138819;-65
2022/11/19 12:02:32;;;;;;;10.50;6.05;;;;;;;-1.27;98.96;100260.02;5221818;55;1138849;-63
2022/11/19 12:08:05;;;;;;;11.22;6.08;;;;;;;-1.47;100.00;100243.36;5098264;55;1138980;-65
2022/11/19 12:13:46;;;;;;;19.00;7.42;;;;;;;-1.58;100.00;100254.53;4994297;57;1140835;-67
2022/11/19 12:19:32;;;;;;;14.13;7.40;;;;;;;-1.79;100.00;100253.91;4871071;58;1140887;-69
2022/11/19 12:25:06;;;;;;;12.40;7.63;;;;;;;-1.85;100.00;100247.20;4864277;58;1141178;-66
2022/11/19 12:30:21;;;;;;;56.70;20.15;;;;;;;-1.92;100.00;100240.94;4845494;58;1141172;-68
2022/11/19 12:35:51;;;;;;;106.93;39.13;;;;;;;-1.97;100.00;100233.30;5064711;55;1143148;-66
2022/11/19 12:41:24;;;;;;;109.03;46.80;;;;;;;-1.98;100.00;100234.63;5129010;55;1144914;-66
2022/11/19 12:46:56;;;;;;;71.70;27.53;;;;;;;-1.95;100.00;100228.06;5129488;56;1145162;-69
2022/11/19 12:52:09;;;;;;;45.10;16.17;;;;;;;-1.95;100.00;100226.77;5138275;56;1143047;-69
2022/11/19 12:57:53;;;;;;;55.92;18.45;;;;;;;-1.93;100.00;100219.36;5131539;56;1143088;-69
2022/11/19 13:03:20;;;;;;;47.30;21.10;;;;;;;-1.91;100.00;100214.97;5131948;56;1142987;-67
2022/11/19 13:08:41;;;;;;;35.55;12.58;;;;;;;-1.88;100.00;100223.95;5079344;55;1143140;-69
2022/11/19 13:13:55;;;;;;;25.47;11.93;;;;;;;-1.88;100.00;100221.81;5058555;56;1143333;-69
2022/11/19 13:19:14;;;;;;;42.65;15.58;;;;;;;-1.91;100.00;100211.53;5133962;55;1143052;-67
2022/11/19 13:24:39;;;;;;;42.53;18.77;;;;;;;-1.92;100.00;100198.17;5146722;55;1143111;-67
2022/11/19 13:29:54;;;;;;;41.02;14.53;;;;;;;-1.92;100.00;100206.80;5155020;56;1143045;-69
2022/11/19 13:35:07;;;;;;;37.43;12.43;;;;;;;-1.91;100.00;100198.58;5154263;56;1143314;-70
2022/11/19 13:40:48;;;;;;;27.57;12.23;;;;;;;-1.86;100.00;100204.47;5146085;56;1152644;-67
2022/11/19 13:46:02;;;;;;;34.13;14.57;;;;;;;-1.86;100.00;100206.62;5111069;56;1143017;-71
2022/11/19 13:51:14;;;;;;;;;;;;;;;-1.86;100.00;100214.39;5124139;55;1142952;-67
2022/11/19 13:56:22;;;;;;;39.73;16.57;;;;;;;-1.86;100.00;100224.76;5101007;56;978511;-69
2022/11/19 14:01:47;;;;;;;38.23;14.30;;;;;;;-1.85;100.00;100215.23;5140970;55;1140811;-67
2022/11/19 14:07:06;;;;;;;26.50;13.83;;;;;;;-1.87;100.00;100220.91;5133471;56;1143061;-68
2022/11/19 14:12:38;;;;;;;41.63;18.63;;;;;;;-1.87;100.00;100207.52;5099702;54;1142965;-65
2022/11/19 14:29:38;;;;;;;48.17;19.33;;;;;;;-1.91;100.00;100208.50;5067964;55;1143233;-66
2022/11/19 14:35:03;;;;;;;32.10;14.13;;;;;;;-1.93;100.00;100211.58;5100104;56;1142989;-67
2022/11/19 14:40:14;;;;;;;18.23;9.87;;;;;;;-1.93;100.00;100212.88;5079637;55;1143215;-80
2022/11/19 14:45:21;;;;;;;23.83;12.37;;;;;;;-1.95;100.00;100197.82;5135665;56;1141341;-80
2022/11/19 14:50:29;;;;;;;26.67;11.40;;;;;;;-1.97;100.00;100224.22;5152911;54;1143090;-79
2022/11/19 14:55:35;;;;;;;14.83;8.17;;;;;;;-1.97;100.00;100198.31;5152750;54;1143014;-80
2022/11/19 15:00:43;;;;;;;63.33;18.27;;;;;;;-1.99;100.00;100203.17;5152506;56;1140972;-79
2022/11/19 15:05:49;;;;;;;66.07;19.03;;;;;;;-2.00;100.00;100197.59;5152488;56;1143074;-80
2022/11/19 15:11:09;;;;;;;126.13;32.50;;;;;;;-2.00;100.00;100191.95;5152969;54;1143114;-81
2022/11/19 15:16:22;;;;;;;35.73;14.30;;;;;;;-1.99;100.00;100191.06;5060746;57;1154719;-81
2022/11/19 15:21:44;;;;;;;125.67;30.45;;;;;;;-2.01;100.00;100194.59;5078273;56;1143006;-80
2022/11/19 15:27:31;;;;;;;93.52;28.73;;;;;;;-1.98;100.00;100187.99;5041978;57;1145023;-81
2022/11/19 15:33:15;;;;;;;74.20;24.50;;;;;;;-1.94;100.00;100187.01;5043881;57;1143152;-80
2022/11/19 15:38:28;;;;;;;62.70;19.17;;;;;;;-1.92;100.00;100187.36;5105419;55;1143198;-79
2022/11/19 15:43:44;;;;;;;73.87;25.23;;;;;;;-1.95;100.00;100188.75;5128571;56;1143141;-79
2022/11/19 15:49:00;;;;;;;52.88;18.15;;;;;;;-1.92;100.00;100177.00;5128515;56;1143086;-80
2022/11/19 15:54:10;;;;;;;30.80;13.03;;;;;;;-1.87;100.00;100179.00;5128567;56;1143181;-80
2022/11/19 15:59:19;;;;;;;41.50;17.20;;;;;;;-1.89;100.00;100191.16;5129429;56;1143108;-80
2022/11/19 16:04:32;;;;;;;35.03;15.73;;;;;;;-1.89;100.00;100183.83;5114288;56;1142997;-79
2022/11/19 16:09:39;;;;;;;36.50;20.05;;;;;;;-1.88;100.00;100183.78;5044780;57;1143024;-80
2022/11/19 16:20:22;;;;;;;31.15;15.70;;;;;;;-1.88;100.00;100175.16;5138749;55;1143095;-79
2022/11/19 16:25:37;;;;;;;26.73;12.33;;;;;;;-1.80;100.00;100175.74;5140339;55;1143161;-78
2022/11/19 16:30:54;;;;;;;28.53;12.90;;;;;;;-1.78;100.00;100181.28;5139018;55;1143110;-77
2022/11/19 16:36:19;;;;;;;40.80;19.53;;;;;;;-1.74;100.00;100191.11;5119205;55;1143052;-80
2022/11/19 16:46:49;;;;;;;27.03;13.40;;;;;;;-1.70;100.00;100195.31;5149953;56;1143014;-79
2022/11/19 16:51:56;;;;;;;41.57;15.73;;;;;;;-1.66;100.00;100177.88;5149740;55;1143023;-80
2022/11/19 16:57:06;;;;;;;45.10;18.80;;;;;;;-1.64;100.00;100192.49;5146500;55;1143089;-78
2022/11/19 17:02:16;;;;;;;50.90;18.57;;;;;;;-1.62;100.00;100195.04;5119964;56;1142987;-80
2022/11/19 17:07:28;;;;;;;43.45;20.72;;;;;;;-1.59;100.00;100202.72;5118220;55;1142839;-80
2022/11/19 17:12:36;;;;;;;34.20;18.20;;;;;;;-1.57;100.00;100209.56;5126936;55;1143017;-80
2022/11/19 17:17:42;;;;;;;26.80;13.73;;;;;;;-1.52;100.00;100208.94;5188238;56;1143097;-78
2022/11/19 17:22:48;;;;;;;32.33;15.70;;;;;;;-1.52;100.00;100197.27;5150518;56;1142822;-79
2022/11/19 17:27:59;;;;;;;30.37;13.80;;;;;;;-1.49;100.00;100212.73;5155053;56;1143195;-80
2022/11/19 17:33:06;;;;;;;41.53;16.93;;;;;;;-1.50;100.00;100222.70;5133263;56;1143035;-79
2022/11/19 17:38:18;;;;;;;27.42;13.93;;;;;;;-1.50;100.00;100217.52;5111183;56;1142980;-78
2022/11/19 17:49:00;;;;;;;23.83;12.80;;;;;;;-1.47;100.00;100224.35;5010315;57;1142971;-78
2022/11/19 17:54:09;;;;;;;32.47;16.13;;;;;;;-1.51;100.00;100224.05;5067988;56;1142972;-77
2022/11/19 17:59:15;;;;;;;52.40;22.03;;;;;;;-1.50;100.00;100232.23;5022364;57;1143176;-79
2022/11/19 18:04:20;;;;;;;52.37;25.07;;;;;;;-1.49;100.00;100221.81;4981083;57;1143038;-78
2022/11/19 18:09:26;;;;;;;86.60;32.85;;;;;;;-1.44;100.00;100225.55;5069833;57;1142973;-78
2022/11/19 18:14:31;;;;;;;36.03;18.50;;;;;;;-1.43;100.00;100224.21;5053443;57;1143108;-77
2022/11/19 18:19:37;;;;;;;33.80;15.80;;;;;;;-1.40;100.00;100222.41;5071705;56;1143393;-78
2022/11/19 18:24:43;;;;;;;22.47;11.10;;;;;;;-1.42;100.00;100213.39;5135190;56;1143205;-78
2022/11/19 18:29:49;;;;;;;29.07;13.58;;;;;;;-1.44;100.00;100224.26;5133745;55;1143192;-79
2022/11/19 18:34:55;;;;;;;41.97;15.73;;;;;;;-1.43;100.00;100225.95;5133090;56;1142847;-79
2022/11/19 18:40:00;;;;;;;30.37;14.73;;;;;;;-1.42;100.00;100228.50;5138840;56;1143203;-79
2022/11/19 18:45:07;;;;;;;41.03;16.63;;;;;;;-1.43;100.00;100237.18;5139292;56;1143091;-79
2022/11/19 18:50:13;;;;;;;42.13;17.90;;;;;;;-1.42;100.00;100234.14;5141015;56;1143052;-80
2022/11/19 18:55:19;;;;;;;32.20;15.70;;;;;;;-1.40;100.00;100244.02;5123848;56;1143092;-81
2022/11/19 19:00:25;;;;;;;30.20;13.65;;;;;;;-1.42;100.00;100246.66;5139240;56;1142990;-80
2022/11/19 19:05:30;;;;;;;34.92;17.30;;;;;;;-1.42;100.00;100235.44;5138210;56;1143231;-78
2022/11/19 19:10:36;;;;;;;41.93;18.53;;;;;;;-1.42;100.00;100235.44;5110913;55;1143420;-80
2022/11/19 19:15:42;;;;;;;37.43;14.70;;;;;;;-1.42;100.00;100243.22;5107954;56;1143077;-80
2022/11/19 19:20:47;;;;;;;34.20;14.00;;;;;;;-1.43;100.00;100251.89;5121406;55;1143241;-80
2022/11/19 19:25:53;;;;;;;62.13;26.43;;;;;;;-1.43;100.00;100250.14;5136691;55;1143029;-82
2022/11/19 19:30:59;;;;;;;52.07;23.23;;;;;;;-1.40;100.00;100256.98;5081131;56;1143134;-80
2022/11/19 19:36:06;;;;;;;47.33;22.00;;;;;;;-1.38;100.00;100258.23;5085496;55;1143053;-79
2022/11/19 19:41:16;;;;;;;34.60;16.20;;;;;;;-1.39;100.00;100258.69;5143419;55;1143019;-79
2022/11/19 19:46:24;;;;;;;49.77;22.07;;;;;;;-1.39;100.00;100256.09;5100122;56;1143118;-79
2022/11/19 19:51:31;;;;;;;33.88;16.65;;;;;;;-1.42;100.00;100254.44;5066001;56;1142912;-79
2022/11/19 19:56:37;;;;;;;43.17;19.10;;;;;;;-1.43;100.00;100243.66;5065557;56;1143266;-79
2022/11/19 20:01:49;;;;;;;40.43;16.20;;;;;;;-1.40;100.00;100257.44;5101771;55;1142947;-80
2022/11/19 20:06:55;;;;;;;40.87;18.77;;;;;;;-1.39;100.00;100270.36;5144161;55;1143178;-80
2022/11/19 20:12:00;;;;;;;55.73;24.17;;;;;;;-1.38;100.00;100270.75;5086855;55;1143228;-80
2022/11/19 20:17:06;;;;;;;38.13;15.17;;;;;;;-1.40;100.00;100269.95;5122599;55;1143151;-80
2022/11/19 20:22:12;;;;;;;19.77;8.37;;;;;;;-1.38;100.00;100276.39;5142503;55;1142915;-80
2022/11/19 20:27:18;;;;;;;45.33;15.97;;;;;;;-1.40;100.00;100273.00;5141534;56;1141023;-78
2022/11/19 20:32:23;;;;;;;25.48;10.13;;;;;;;-1.42;100.00;100275.64;5139546;56;1142949;-77
2022/11/19 20:37:29;;;;;;;28.17;14.70;;;;;;;-1.44;100.00;100283.46;5127987;55;1143081;-78
2022/11/19 20:47:58;;;;;;;28.20;11.22;;;;;;;-1.42;100.00;100273.89;5053629;57;1211243;-78
2022/11/19 20:53:04;;;;;;;23.12;10.28;;;;;;;-1.40;100.00;100282.08;5053659;57;1183253;-78
2022/11/19 20:58:09;;;;;;;27.50;13.97;;;;;;;-1.44;100.00;100287.35;5054908;57;1142865;-78
2022/11/19 21:03:16;;;;;;;34.88;17.07;;;;;;;-1.40;100.00;100279.48;5071499;57;1143072;-79
2022/11/19 21:08:21;;;;;;;36.93;17.20;;;;;;;-1.39;100.00;100279.44;5039947;57;1152454;-79
2022/11/19 21:13:27;;;;;;;34.37;12.80;;;;;;;-1.40;100.00;100270.40;5080077;56;1142824;-79
2022/11/19 21:18:35;;;;;;;23.07;11.25;;;;;;;-1.38;100.00;100275.94;5136090;56;1143071;-79
2022/11/19 21:23:43;;;;;;;29.70;13.93;;;;;;;-1.39;100.00;100274.69;5091893;56;1142989;-78
2022/11/19 21:28:52;;;;;;;20.37;10.23;;;;;;;-1.47;100.00;100273.18;5139396;56;1143068;-80
2022/11/19 21:33:58;;;;;;;36.73;17.47;;;;;;;-1.52;100.00;100271.17;5139236;56;1143109;-80
2022/11/19 21:39:06;;;;;;;30.40;16.45;;;;;;;-1.52;100.00;100267.73;5138995;56;1142772;-80
2022/11/19 21:44:12;;;;;;;49.37;20.80;;;;;;;-1.54;100.00;100264.37;5134820;55;1143035;-80
2022/11/19 21:49:18;;;;;;;25.43;12.13;;;;;;;-1.54;100.00;100266.96;5131518;56;1143185;-80
2022/11/19 21:54:23;;;;;;;27.93;14.67;;;;;;;-1.55;100.00;100269.16;5139554;55;1143041;-80
2022/11/19 21:59:29;;;;;;;28.23;13.80;;;;;;;-1.52;100.00;100273.77;5159611;56;1142851;-80
2022/11/19 22:04:34;;;;;;;23.17;11.83;;;;;;;-1.54;100.00;100270.41;5139440;56;1143392;-80
2022/11/19 22:09:40;;;;;;;30.50;14.45;;;;;;;-1.57;100.00;100261.87;5138786;56;1142999;-80
2022/11/19 22:14:45;;;;;;;24.82;12.65;;;;;;;-1.53;100.00;100267.36;5135700;56;1142923;-80
2022/11/19 22:19:51;;;;;;;21.82;10.55;;;;;;;-1.53;100.00;100269.48;5050178;57;1143275;-80
2022/11/19 22:24:58;;;;;;;30.33;13.10;;;;;;;-1.52;100.00;100275.06;5139051;56;1143214;-80
2022/11/19 22:30:04;;;;;;;39.73;15.63;;;;;;;-1.51;100.00;100276.77;5139247;56;1143296;-80
2022/11/19 22:35:10;;;;;;;37.33;17.13;;;;;;;-1.54;100.00;100278.19;5139183;56;1143367;-80
2022/11/19 22:40:16;;;;;;;22.35;10.75;;;;;;;-1.56;100.00;100291.64;5139045;56;1143388;-80
2022/11/19 22:45:22;;;;;;;28.23;14.00;;;;;;;-1.57;100.00;100285.20;5139097;56;1143025;-80
2022/11/19 22:50:27;;;;;;;21.25;11.75;;;;;;;-1.59;100.00;100281.81;5139250;56;1142959;-80
2022/11/19 22:55:35;;;;;;;22.27;11.67;;;;;;;-1.58;100.00;100280.47;5139331;56;1143020;-80
2022/11/19 23:00:46;;;;;;;16.03;8.47;;;;;;;-1.56;100.00;100274.78;5138991;56;1143069;-80
2022/11/19 23:05:53;;;;;;;21.10;10.73;;;;;;;-1.59;100.00;100263.66;5139059;56;1140960;-81
2022/11/19 23:11:02;;;;;;;22.13;11.25;;;;;;;-1.61;100.00;100274.08;5138885;56;1142979;-80
2022/11/19 23:16:18;;;;;;;15.30;8.30;;;;;;;-1.63;100.00;100265.49;5139088;56;1143209;-80
2022/11/19 23:21:26;;;;;;;13.28;7.42;;;;;;;-1.63;100.00;100273.72;5092318;56;1141547;-80
2022/11/19 23:26:34;;;;;;;25.30;9.03;;;;;;;-1.62;100.00;100267.64;4971589;58;1141040;-80
2022/11/19 23:31:41;;;;;;;18.43;9.37;;;;;;;-1.59;100.00;100270.14;4961551;58;1141229;-80
2022/11/19 23:36:46;;;;;;;19.97;10.40;;;;;;;-1.57;100.00;100260.57;4961226;58;1140984;-80
2022/11/19 23:41:52;;;;;;;20.83;10.27;;;;;;;-1.58;100.00;100254.98;5044255;56;1143167;-80
2022/11/19 23:46:58;;;;;;;20.17;9.10;;;;;;;-1.57;100.00;100256.23;5044197;56;1143112;-79